Maxton, MI

4:21 AM EST on December 04, 2016 (GMT -0500)
Potagannissing Bay Front | | Change Station
Active Advisory: Special Statement

Elev 587 ft 46.06 °N, 83.67 °W | Updated 7 seconds ago

Overcast
Overcast
31.7 °F
Feels Like 32 °F
N
0.0
Wind Variable Wind from East
Gusts 6.0 mph

Today
High -- | Low -- °F
--% Chance of Precip.
Yesterday
High -- | Low -- °F
Precip. -- in
Pressure 30.24 in
Visibility 10.0 miles
Clouds Overcast 4600 ft
Windchill 32 °F
Dew Point 29 °F
Humidity 90%
Rainfall 0.00 in
Snow Depth Not available.
8:00 AM 4:49 PM
Waxing Crescent, 21% visible
METAR KDRM 040915Z AUTO 11003KT 10SM OVC046 00/M02 A3024 RMK AO2 T10011021
Pressure 30.24 in
Visibility 10.0 miles
Clouds Overcast 4600 ft
Windchill 32 °F
Dew Point 29 °F
Humidity 90%
Rainfall 0.00 in
Snow Depth Not available.
8:00 AM 4:49 PM
Waxing Crescent, 21% visible
METAR KDRM 040915Z AUTO 11003KT 10SM OVC046 00/M02 A3024 RMK AO2 T10011021

10-Day Weather Forecast

Almanac

Astronomy

Dec. 04, 2016 Rise Set
Actual Time
Civil Twilight
Nautical Twilight
Astronomical Twilight
Moon
Length of Visible Light
Length of Day
Tomorrow will be .
, % of the Moon is Illuminated

Today's Extremes

State Highs State Lows

Community

WunderPhotos

Upload Photos

1,955,587 photos uploaded!

WunderBlog® & News

Nearby

Air Quality

  Air Quality AQ Index Pollutant
Not available.

Snow Depth

Station Depth Elevation

Earthquake Activity

City Distance Mag. Time & Date
Minimum magnitude displayed is 2.5.

Coastal Water Temperatures

Place Temperature

Stations

Nearby Weather Stations

Station Location Temp. Windchill Dew Point Humidity Wind Precip. Elev Updated Type
                   

Watches & Warnings

Special Statement
Issued: 3:04 AM EST Dec. 4, 2016 – National Weather Service

... Accumulating snow expected this afternoon and tonight...

Widespread snow will develop this afternoon... with periods of snow
continuing through tonight. Total snow accumulation of one to four
inches is expected by Monday morning... with the highest amounts
along the St. Marys River.

Motorists are urged to use caution this afternoon and tonight as
slushy snow accumulations are expected... especially on secondary
and untreated Road surfaces.


Msb

304 am EST sun Dec 4 2016

... Accumulating snow expected this afternoon and tonight...

Widespread snow will develop this afternoon... with periods of snow
continuing through tonight. Total snow accumulation of one to four
inches is expected by Monday morning... with the highest amounts
along the St. Marys River.

Motorists are urged to use caution this afternoon and tonight as
slushy snow accumulations are expected... especially on secondary
and untreated Road surfaces.


Msb